Time,TemperatureF,DewpointF,PressureIn,WindDirection,WindDirectionDegrees,WindSpeedMPH,WindSpeedGustMPH,Humidity,HourlyPrecipIn,Conditions,Clouds,dailyrainin,SoftwareType,DateUTC
2013-07-12 00:06:00,64.2,63.6,29.91,WNW,292,0.0,-999.0,98,-99.99,,,0.00,Acu-Link.com,2013-07-12 04:06:00,
2013-07-12 00:21:00,64.0,63.4,29.92,WNW,292,0.0,-999.0,98,-99.99,,,0.00,Acu-Link.com,2013-07-12 04:21:00,
2013-07-12 00:37:00,63.7,63.1,29.92,WNW,292,0.0,-999.0,98,-99.99,,,0.00,Acu-Link.com,2013-07-12 04:37:00,
2013-07-12 00:52:00,63.7,63.1,29.92,WNW,292,0.0,-999.0,98,-99.99,,,0.00,Acu-Link.com,2013-07-12 04:52:00,
2013-07-12 01:07:00,63.9,63.3,29.92,West,270,0.0,-999.0,98,-99.99,,,0.00,Acu-Link.com,2013-07-12 05:07:00,
2013-07-12 01:23:00,63.7,63.1,29.93,West,270,0.0,-999.0,98,-99.99,,,0.00,Acu-Link.com,2013-07-12 05:23:00,
2013-07-12 01:38:00,63.5,62.9,29.93,West,270,0.0,-999.0,98,-99.99,,,0.00,Acu-Link.com,2013-07-12 05:38:00,
2013-07-12 01:53:00,63.3,62.7,29.93,West,270,0.0,-999.0,98,-99.99,,,0.00,Acu-Link.com,2013-07-12 05:53:00,
2013-07-12 02:08:00,63.1,62.5,29.92,West,270,0.0,-999.0,98,-99.99,,,0.00,Acu-Link.com,2013-07-12 06:08:00,
2013-07-12 02:24:00,62.8,62.2,29.92,South,180,0.0,-999.0,98,-99.99,,,0.00,Acu-Link.com,2013-07-12 06:24:00,
2013-07-12 02:39:00,62.6,62.0,29.92,South,180,0.0,-999.0,98,-99.99,,,0.00,Acu-Link.com,2013-07-12 06:39:00,
2013-07-12 02:54:00,62.4,61.8,29.94,South,180,0.0,-999.0,98,-99.99,,,0.00,Acu-Link.com,2013-07-12 06:54:00,
2013-07-12 03:10:00,62.4,61.8,29.94,SW,225,0.0,-999.0,98,-99.99,,,0.00,Acu-Link.com,2013-07-12 07:10:00,
2013-07-12 03:25:00,62.2,61.6,29.94,SW,225,0.0,-999.0,98,-99.99,,,0.00,Acu-Link.com,2013-07-12 07:25:00,
2013-07-12 03:40:00,62.1,61.5,29.94,SW,225,0.0,-999.0,98,-99.99,,,0.00,Acu-Link.com,2013-07-12 07:40:00,
2013-07-12 03:56:00,61.9,61.3,29.95,SW,225,0.0,-999.0,98,-99.99,,,0.00,Acu-Link.com,2013-07-12 07:56:00,
2013-07-12 04:12:00,61.5,60.9,29.95,SW,225,0.0,-999.0,98,-99.99,,,0.00,Acu-Link.com,2013-07-12 08:12:00,
2013-07-12 04:27:00,61.5,60.9,29.95,SW,225,0.0,-999.0,98,-99.99,,,0.00,Acu-Link.com,2013-07-12 08:27:00,
2013-07-12 04:42:00,61.5,60.9,29.96,SW,225,0.0,-999.0,98,-99.99,,,0.00,Acu-Link.com,2013-07-12 08:42:00,
2013-07-12 04:57:00,61.3,60.7,29.97,SW,225,0.0,-999.0,98,-99.99,,,0.00,Acu-Link.com,2013-07-12 08:57:00,
2013-07-12 05:12:00,61.3,60.7,29.96,SW,225,0.0,-999.0,98,-99.99,,,0.00,Acu-Link.com,2013-07-12 09:12:00,
2013-07-12 05:27:00,61.2,60.6,29.97,SSW,202,0.0,-999.0,98,-99.99,,,0.00,Acu-Link.com,2013-07-12 09:27:00,
2013-07-12 05:43:00,61.0,60.4,29.99,SSW,202,0.0,-999.0,98,-99.99,,,0.00,Acu-Link.com,2013-07-12 09:43:00,
2013-07-12 05:58:00,60.6,60.0,29.99,WNW,292,0.0,-999.0,98,-99.99,,,0.00,Acu-Link.com,2013-07-12 09:58:00,
2013-07-12 06:13:00,60.6,60.0,30.01,WNW,292,0.0,-999.0,98,-99.99,,,0.00,Acu-Link.com,2013-07-12 10:13:00,
2013-07-12 06:28:00,60.6,60.0,30.01,WNW,292,0.0,-999.0,98,-99.99,,,0.00,Acu-Link.com,2013-07-12 10:28:00,
2013-07-12 06:44:00,60.6,60.0,30.00,WNW,292,0.0,-999.0,98,-99.99,,,0.00,Acu-Link.com,2013-07-12 10:44:00,
2013-07-12 06:59:00,60.8,60.2,30.01,WNW,292,0.0,-999.0,98,-99.99,,,0.00,Acu-Link.com,2013-07-12 10:59:00,
2013-07-12 07:14:00,61.3,60.7,30.01,NW,315,0.0,-999.0,98,-99.99,,,0.00,Acu-Link.com,2013-07-12 11:14:00,
2013-07-12 07:29:00,62.2,61.6,30.03,WNW,292,0.0,-999.0,98,-99.99,,,0.00,Acu-Link.com,2013-07-12 11:29:00,
2013-07-12 07:45:00,63.0,62.4,30.02,NW,315,0.0,-999.0,98,-99.99,,,0.00,Acu-Link.com,2013-07-12 11:45:00,
2013-07-12 08:00:00,63.5,62.9,30.03,NNW,337,0.0,-999.0,98,-99.99,,,0.00,Acu-Link.com,2013-07-12 12:00:00,
2013-07-12 08:15:00,64.6,64.0,30.02,East,90,0.0,-999.0,98,-99.99,,,0.00,Acu-Link.com,2013-07-12 12:15:00,
2013-07-12 08:31:00,65.3,64.7,30.03,WNW,292,1.1,-999.0,98,-99.99,,,0.00,Acu-Link.com,2013-07-12 12:31:00,
2013-07-12 08:46:00,67.3,66.7,30.04,West,270,0.0,-999.0,98,-99.99,,,0.00,Acu-Link.com,2013-07-12 12:46:00,
2013-07-12 09:01:00,68.7,68.1,30.04,NW,315,0.0,-999.0,98,-99.99,,,0.00,Acu-Link.com,2013-07-12 13:01:00,
2013-07-12 09:17:00,69.3,68.7,30.03,NNW,337,2.2,-999.0,98,-99.99,,,0.00,Acu-Link.com,2013-07-12 13:17:00,
2013-07-12 09:32:00,70.2,69.6,30.03,ENE,67,0.0,-999.0,98,-99.99,,,0.00,Acu-Link.com,2013-07-12 13:32:00,
2013-07-12 09:47:00,71.1,70.5,30.04,NE,45,1.1,-999.0,98,-99.99,,,0.00,Acu-Link.com,2013-07-12 13:47:00,
2013-07-12 10:03:00,72.1,70.3,30.04,NNE,22,0.0,-999.0,94,-99.99,,,0.00,Acu-Link.com,2013-07-12 14:03:00,
2013-07-12 10:18:00,73.0,69.9,30.04,North,0,1.7,-999.0,90,-99.99,,,0.00,Acu-Link.com,2013-07-12 14:18:00,
2013-07-12 10:33:00,73.6,70.5,30.03,NW,315,1.7,-999.0,90,-99.99,,,0.00,Acu-Link.com,2013-07-12 14:33:00,
2013-07-12 10:48:00,73.8,69.7,30.04,North,0,2.2,-999.0,87,-99.99,,,0.00,Acu-Link.com,2013-07-12 14:48:00,
2013-07-12 11:04:00,74.3,70.2,30.03,NNW,337,1.1,-999.0,87,-99.99,,,0.00,Acu-Link.com,2013-07-12 15:04:00,
2013-07-12 11:19:00,74.7,70.2,30.03,NW,315,1.7,-999.0,86,-99.99,,,0.00,Acu-Link.com,2013-07-12 15:19:00,
2013-07-12 11:34:00,75.2,70.4,30.03,NNW,337,0.0,-999.0,85,-99.99,,,0.00,Acu-Link.com,2013-07-12 15:34:00,
2013-07-12 11:49:00,75.6,70.4,30.03,NE,45,0.0,-999.0,84,-99.99,,,0.00,Acu-Link.com,2013-07-12 15:49:00,
2013-07-12 12:05:00,75.9,70.0,30.03,West,270,3.7,-999.0,82,-99.99,,,0.00,Acu-Link.com,2013-07-12 16:05:00,
2013-07-12 12:20:00,75.7,69.8,30.05,NW,315,2.7,-999.0,82,-99.99,,,0.00,Acu-Link.com,2013-07-12 16:20:00,
2013-07-12 12:35:00,75.9,69.6,30.05,NW,315,0.0,-999.0,81,-99.99,,,0.00,Acu-Link.com,2013-07-12 16:35:00,
2013-07-12 12:51:00,75.9,70.0,30.04,NNE,22,0.0,-999.0,82,-99.99,,,0.00,Acu-Link.com,2013-07-12 16:51:00,
2013-07-12 13:06:00,76.1,70.5,30.04,ENE,67,0.0,-999.0,83,-99.99,,,0.00,Acu-Link.com,2013-07-12 17:06:00,
2013-07-12 13:21:00,76.3,70.7,30.04,WNW,292,2.2,-999.0,83,-99.99,,,0.00,Acu-Link.com,2013-07-12 17:21:00,
2013-07-12 13:37:00,76.3,70.0,30.04,North,0,1.1,-999.0,81,-99.99,,,0.00,Acu-Link.com,2013-07-12 17:37:00,
2013-07-12 13:52:00,76.3,70.4,30.04,West,270,0.0,-999.0,82,-99.99,,,0.00,Acu-Link.com,2013-07-12 17:52:00,
2013-07-12 14:07:00,76.3,70.0,30.03,NNE,22,1.1,-999.0,81,-99.99,,,0.00,Acu-Link.com,2013-07-12 18:07:00,
2013-07-12 14:53:00,77.0,70.3,30.04,WNW,292,2.2,-999.0,80,-99.99,,,0.00,Acu-Link.com,2013-07-12 18:53:00,
2013-07-12 15:08:00,76.3,69.3,30.05,WSW,247,3.2,-999.0,79,-99.99,,,0.00,Acu-Link.com,2013-07-12 19:08:00,
2013-07-12 15:23:00,75.9,70.4,30.03,ENE,67,2.7,-999.0,83,-99.99,,,0.03,Acu-Link.com,2013-07-12 19:23:00,
2013-07-12 15:39:00,75.6,70.1,30.03,SE,135,1.1,-999.0,83,-99.99,,,0.03,Acu-Link.com,2013-07-12 19:39:00,
2013-07-12 15:54:00,75.6,69.7,30.04,WNW,292,2.7,-999.0,82,-99.99,,,0.03,Acu-Link.com,2013-07-12 19:54:00,
2013-07-12 16:09:00,75.9,70.0,30.02,WNW,292,3.7,-999.0,82,-99.99,,,0.03,Acu-Link.com,2013-07-12 20:09:00,
2013-07-12 16:25:00,75.9,70.0,30.01,ENE,67,1.7,-999.0,82,-99.99,,,0.03,Acu-Link.com,2013-07-12 20:25:00,
2013-07-12 16:40:00,76.3,69.7,30.02,NNE,22,0.0,-999.0,80,-99.99,,,0.03,Acu-Link.com,2013-07-12 20:40:00,
2013-07-12 16:55:00,77.0,70.0,30.01,SE,135,0.0,-999.0,79,-99.99,,,0.03,Acu-Link.com,2013-07-12 20:55:00,
2013-07-12 17:10:00,76.1,69.5,30.02,East,90,2.2,-999.0,80,-99.99,,,0.03,Acu-Link.com,2013-07-12 21:10:00,
2013-07-12 17:41:00,76.1,69.8,30.02,East,90,2.2,-999.0,81,-99.99,,,0.03,Acu-Link.com,2013-07-12 21:41:00,
2013-07-12 17:56:00,75.9,70.0,30.01,ESE,112,1.1,-999.0,82,-99.99,,,0.03,Acu-Link.com,2013-07-12 21:56:00,
2013-07-12 18:11:00,75.4,69.5,30.02,NE,45,0.0,-999.0,82,-99.99,,,0.03,Acu-Link.com,2013-07-12 22:11:00,
2013-07-12 18:27:00,75.0,69.8,30.03,ENE,67,1.7,-999.0,84,-99.99,,,0.03,Acu-Link.com,2013-07-12 22:27:00,
2013-07-12 18:42:00,74.3,69.8,30.03,NNE,22,0.0,-999.0,86,-99.99,,,0.03,Acu-Link.com,2013-07-12 22:42:00,
2013-07-12 18:57:00,73.6,68.5,30.02,NNW,337,1.7,-999.0,84,-99.99,,,0.03,Acu-Link.com,2013-07-12 22:57:00,
2013-07-12 19:28:00,72.9,67.4,30.03,North,0,0.0,-999.0,83,-99.99,,,0.03,Acu-Link.com,2013-07-12 23:28:00,
2013-07-12 19:43:00,72.1,68.0,30.03,ESE,112,0.0,-999.0,87,-99.99,,,0.03,Acu-Link.com,2013-07-12 23:43:00,
2013-07-12 19:58:00,71.6,68.5,30.04,ESE,112,0.0,-999.0,90,-99.99,,,0.03,Acu-Link.com,2013-07-12 23:58:00,
2013-07-12 20:14:00,70.9,68.5,30.02,ESE,112,1.7,-999.0,92,-99.99,,,0.03,Acu-Link.com,2013-07-13 00:14:00,
2013-07-12 20:29:00,70.7,68.3,30.02,East,90,1.1,-999.0,92,-99.99,,,0.03,Acu-Link.com,2013-07-13 00:29:00,
2013-07-12 20:44:00,70.2,68.1,30.03,East,90,0.0,-999.0,93,-99.99,,,0.03,Acu-Link.com,2013-07-13 00:44:00,
2013-07-12 21:30:00,67.8,67.2,30.05,ESE,112,0.0,-999.0,98,-99.99,,,0.03,Acu-Link.com,2013-07-13 01:30:00,
2013-07-12 21:45:00,67.1,66.5,30.05,WSW,247,0.0,-999.0,98,-99.99,,,0.03,Acu-Link.com,2013-07-13 01:45:00,
2013-07-12 22:16:00,66.4,65.8,30.07,WSW,247,0.0,-999.0,98,-99.99,,,0.03,Acu-Link.com,2013-07-13 02:16:00,
2013-07-12 22:31:00,65.8,65.2,30.07,WSW,247,0.0,-999.0,98,-99.99,,,0.03,Acu-Link.com,2013-07-13 02:31:00,
2013-07-12 22:47:00,65.7,65.1,30.07,WSW,247,0.0,-999.0,98,-99.99,,,0.03,Acu-Link.com,2013-07-13 02:47:00,
2013-07-12 23:17:00,64.6,64.0,30.08,SE,135,0.0,-999.0,98,-99.99,,,0.03,Acu-Link.com,2013-07-13 03:17:00,
2013-07-12 23:32:00,64.0,63.4,30.09,North,0,0.0,-999.0,98,-99.99,,,0.03,Acu-Link.com,2013-07-13 03:32:00,
2013-07-12 23:48:00,63.9,63.3,30.08,NNW,337,0.0,-999.0,98,-99.99,,,0.03,Acu-Link.com,2013-07-13 03:48:00,